Pagina principale
METAR-TAF:

METAR-TAF

Aeroporti :

Dübendorf, Svizzera

latitudine: 47-23-55N, longitudine: 8-38-53E, altezza: 448 m

Osservazione

Il bollettino è stato emesso 29 minuti fa, alle 00:50 UTC
Vento 16 kt da nord-ovest con raffiche fino a 27 kt
Temperature 8°C
Umidità 71%
Pressione 1011 hPa
Visibilità 10 km o più
Nuvoloso ad un'altezza di 4500 ft
Cielo coperto ad un'altezza di 9700 ft

METAR: LSMD 160050Z AUTO 32016G27KT 9999NDV BKN045 OVC097 08/03 Q1011 RMK

Ora: 03:19 (01:19 UTC)


TAF: mancante

Osservazioni e previsioni meteorologiche di più di 4000 aeroporti (messaggi METAR e TAF).

Le stazioni disponibili sono rappresentate dai dischi gialli e rossi sulla carta.

Puntare il mouse per vedere il nome della stazione.

Clicca sopra per visualizzare le osservazioni e previsioni meteorologiche.

Per cambiare la mappa : fare clic sui pulsanti verdi con una croce nera per ingrandire, il pulsante verde con un trattino per diminuire, o sulla freccia verde per le mappe adiacenti.


METAR-TAF: